Time;durP1;ratioP1;P1;durP2;ratioP2;P2;SDS_P1;SDS_P2;PMS_P1;PMS_P2;Temp;Humidity;BMP_temperature;BMP_pressure;BME280_temperature;BME280_humidity;BME280_pressure;Samples;Min_cycle;Max_cycle;Signal;HPM_P1;HPM_P2
2022/11/21 00:00:38;;;;;;;34.42;19.58;;;1.30;99.90;;;;;;4931268;29;20039;-80
2022/11/21 00:03:04;;;;;;;35.80;19.00;;;1.30;99.90;;;;;;4939537;29;20043;-80
2022/11/21 00:05:31;;;;;;;31.23;18.17;;;1.30;99.90;;;;;;4923412;29;20070;-80
2022/11/21 00:07:57;;;;;;;36.28;18.33;;;1.30;99.90;;;;;;4955104;29;20054;-81
2022/11/21 00:10:24;;;;;;;37.70;20.33;;;1.30;99.90;;;;;;4923947;29;20045;-81
2022/11/21 00:12:57;;;;;;;31.52;18.52;;;1.30;99.90;;;;;;4939696;29;20456;-80
2022/11/21 00:15:24;;;;;;;34.65;19.83;;;1.30;99.90;;;;;;4938828;29;20115;-80
2022/11/21 00:17:51;;;;;;;34.75;19.25;;;1.30;99.90;;;;;;4955042;29;20038;-80
2022/11/21 00:20:18;;;;;;;35.28;19.30;;;2.70;99.90;;;;;;4912262;29;20114;-80
2022/11/21 00:22:43;;;;;;;33.47;19.42;;;1.30;99.90;;;;;;4938598;29;20058;-80
2022/11/21 00:25:09;;;;;;;36.47;20.25;;;1.30;99.90;;;;;;4938181;29;20047;-80
2022/11/21 00:27:35;;;;;;;39.33;21.33;;;2.20;99.90;;;;;;4938335;29;20475;-81
2022/11/21 00:30:01;;;;;;;32.85;19.65;;;1.30;99.90;;;;;;4922037;29;20054;-80
2022/11/21 00:32:27;;;;;;;42.03;21.67;;;1.30;99.90;;;;;;4954416;28;20067;-80
2022/11/21 00:34:52;;;;;;;36.95;19.90;;;1.30;99.90;;;;;;4923562;29;20054;-80
2022/11/21 00:37:18;;;;;;;33.83;20.20;;;1.30;99.90;;;;;;4922945;29;20053;-80
2022/11/21 00:39:44;;;;;;;38.38;20.90;;;2.20;99.90;;;;;;4923011;29;20047;-80
2022/11/21 00:42:09;;;;;;;37.63;20.73;;;1.30;99.90;;;;;;4939151;29;20043;-80
2022/11/21 00:44:35;;;;;;;40.13;20.70;;;1.30;99.90;;;;;;4954965;29;20491;-80
2022/11/21 00:47:01;;;;;;;34.05;19.15;;;2.20;99.90;;;;;;4954772;29;20050;-80
2022/11/21 00:49:26;;;;;;;34.55;19.73;;;1.20;99.90;;;;;;4938737;29;20050;-80
2022/11/21 00:51:52;;;;;;;35.80;20.10;;;1.30;99.90;;;;;;4938145;29;20050;-80
2022/11/21 00:54:18;;;;;;;36.60;19.85;;;1.30;99.90;;;;;;4938976;29;20054;-80
2022/11/21 00:56:43;;;;;;;34.92;20.75;;;1.70;99.90;;;;;;4938835;29;20035;-80
2022/11/21 00:59:09;;;;;;;36.42;20.20;;;1.30;99.90;;;;;;4954896;29;20624;-80
2022/11/21 01:01:35;;;;;;;35.45;18.70;;;1.20;99.90;;;;;;4938474;29;20039;-80
2022/11/21 01:04:00;;;;;;;35.92;20.60;;;1.20;99.90;;;;;;4938858;29;20066;-80
2022/11/21 01:06:26;;;;;;;36.28;20.60;;;2.30;99.90;;;;;;4922902;29;20066;-80
2022/11/21 01:08:52;;;;;;;37.35;19.77;;;1.30;99.90;;;;;;4938810;29;20214;-80
2022/11/21 01:11:19;;;;;;;38.47;20.58;;;1.30;99.90;;;;;;4923804;29;20043;-80
2022/11/21 01:13:45;;;;;;;38.65;19.95;;;1.50;99.90;;;;;;4939301;29;20066;-80
2022/11/21 01:16:17;;;;;;;38.92;20.17;;;1.30;99.90;;;;;;4938927;29;20532;-80
2022/11/21 01:18:44;;;;;;;36.95;20.58;;;1.20;99.90;;;;;;4940082;29;20039;-79
2022/11/21 01:21:18;;;;;;;37.88;21.45;;;1.20;99.90;;;;;;4940827;29;20039;-80
2022/11/21 01:23:44;;;;;;;33.92;20.08;;;1.20;99.90;;;;;;4955922;29;20503;-80
2022/11/21 01:26:13;;;;;;;35.80;21.52;;;1.20;99.90;;;;;;4927225;29;20637;-79
2022/11/21 01:28:39;;;;;;;34.65;19.63;;;1.60;99.90;;;;;;4939722;29;20503;-80
2022/11/21 01:31:09;;;;;;;37.20;20.33;;;1.90;99.90;;;;;;4953644;28;20050;-80
2022/11/21 01:33:36;;;;;;;34.45;19.90;;;1.20;99.90;;;;;;4954883;29;20051;-80
2022/11/21 01:36:22;;;;;;;35.65;19.25;;;1.20;99.90;;;;;;4939542;29;20054;-80
2022/11/21 01:38:53;;;;;;;35.67;20.85;;;1.20;99.90;;;;;;4939159;29;20054;-79
2022/11/21 01:41:25;;;;;;;34.85;20.05;;;1.20;99.90;;;;;;4938800;29;20094;-80
2022/11/21 01:43:51;;;;;;;34.97;20.52;;;1.20;99.90;;;;;;4953923;29;20543;-80
2022/11/21 01:46:19;;;;;;;35.25;20.13;;;1.30;99.90;;;;;;4938840;29;20134;-81
2022/11/21 01:48:53;;;;;;;36.55;20.83;;;1.20;99.90;;;;;;4938504;29;20049;-81
2022/11/21 01:51:57;;;;;;;33.65;19.85;;;1.30;99.90;;;;;;4953871;29;20047;-81
2022/11/21 01:54:31;;;;;;;34.55;20.70;;;1.20;99.90;;;;;;4906960;29;20062;-81
2022/11/21 01:57:07;;;;;;;35.00;20.17;;;1.20;99.90;;;;;;4937874;29;20047;-81
2022/11/21 01:59:50;;;;;;;32.80;19.60;;;1.30;99.90;;;;;;4954928;29;20062;-81
2022/11/21 02:02:20;;;;;;;38.72;21.08;;;1.30;99.90;;;;;;4938436;29;20039;-81
2022/11/21 02:04:47;;;;;;;37.15;20.80;;;1.20;99.90;;;;;;4952381;29;20511;-81
2022/11/21 02:07:14;;;;;;;33.80;19.25;;;1.20;99.90;;;;;;4937144;29;20055;-81
2022/11/21 02:09:44;;;;;;;36.15;20.27;;;1.60;99.90;;;;;;4922202;29;20396;-80
2022/11/21 02:12:21;;;;;;;37.42;20.17;;;1.20;99.90;;;;;;4938759;29;20106;-81
2022/11/21 02:14:47;;;;;;;36.60;20.85;;;1.20;99.90;;;;;;4946123;29;20493;-81
2022/11/21 02:17:13;;;;;;;36.15;19.63;;;1.20;99.90;;;;;;4945868;29;20051;-81
2022/11/21 02:19:54;;;;;;;36.08;20.25;;;2.20;99.90;;;;;;4922279;29;20039;-81
2022/11/21 02:22:44;;;;;;;34.95;20.23;;;2.10;99.90;;;;;;4953256;28;20051;-81
2022/11/21 02:25:22;;;;;;;36.47;20.77;;;1.20;99.90;;;;;;4952090;29;20083;-80
2022/11/21 02:27:51;;;;;;;32.58;20.00;;;2.40;99.90;;;;;;4927480;29;20040;-81
2022/11/21 02:30:18;;;;;;;36.50;19.83;;;1.20;99.90;;;;;;4952499;28;20118;-80
2022/11/21 02:32:47;;;;;;;36.72;20.17;;;1.20;99.90;;;;;;4936223;29;20043;-80
2022/11/21 02:35:18;;;;;;;35.22;20.15;;;1.50;99.90;;;;;;4937110;29;20046;-80
2022/11/21 02:38:10;;;;;;;36.00;20.05;;;1.20;99.90;;;;;;4928561;29;20032;-80
2022/11/21 02:40:40;;;;;;;33.45;20.02;;;1.20;99.90;;;;;;4950904;29;20160;-80
2022/11/21 02:43:16;;;;;;;33.80;19.27;;;2.20;99.90;;;;;;4936405;29;20067;-80
2022/11/21 02:45:44;;;;;;;31.35;19.75;;;2.30;99.90;;;;;;4951608;29;20039;-80
2022/11/21 02:48:10;;;;;;;33.40;19.55;;;1.20;99.90;;;;;;4935142;29;20047;-81
2022/11/21 02:50:38;;;;;;;36.78;20.30;;;1.20;99.90;;;;;;4919350;29;20122;-81
2022/11/21 02:53:06;;;;;;;37.70;20.42;;;1.20;99.90;;;;;;4934392;29;20988;-80
2022/11/21 02:55:31;;;;;;;37.97;20.98;;;1.20;99.90;;;;;;4950539;29;20047;-81
2022/11/21 02:57:57;;;;;;;37.95;21.42;;;1.20;99.90;;;;;;4951998;29;20043;-80
2022/11/21 03:00:23;;;;;;;31.85;20.00;;;1.20;99.90;;;;;;4934824;29;20070;-80
2022/11/21 03:02:49;;;;;;;35.50;20.40;;;2.30;99.90;;;;;;4935685;29;20122;-80
2022/11/21 03:05:17;;;;;;;31.98;19.67;;;1.20;99.90;;;;;;4935800;29;20050;-80
2022/11/21 03:07:44;;;;;;;35.92;21.48;;;1.20;99.90;;;;;;4942081;29;20078;-80
2022/11/21 03:10:10;;;;;;;40.55;21.02;;;1.20;99.90;;;;;;4935952;29;20050;-80
2022/11/21 03:12:36;;;;;;;35.13;21.52;;;1.20;99.90;;;;;;4920107;29;20035;-80
2022/11/21 03:15:05;;;;;;;34.85;20.38;;;1.20;99.90;;;;;;4935506;29;20481;-80
2022/11/21 03:17:31;;;;;;;35.58;19.50;;;1.20;99.90;;;;;;4951623;29;20114;-80
2022/11/21 03:19:56;;;;;;;37.97;20.38;;;1.20;99.90;;;;;;4919977;29;20519;-80
2022/11/21 03:22:22;;;;;;;35.83;20.58;;;1.20;99.90;;;;;;4920212;29;20051;-80
2022/11/21 03:24:48;;;;;;;37.10;20.08;;;1.10;99.90;;;;;;4920495;29;20102;-80
2022/11/21 03:27:14;;;;;;;31.15;18.73;;;1.20;99.90;;;;;;4919935;29;20522;-80
2022/11/21 03:29:39;;;;;;;31.48;18.88;;;1.30;99.90;;;;;;4951396;29;20090;-80
2022/11/21 03:32:05;;;;;;;33.08;19.75;;;1.10;99.90;;;;;;4919589;29;20050;-80
2022/11/21 03:34:31;;;;;;;36.17;20.98;;;2.20;99.90;;;;;;4935121;29;20050;-80
2022/11/21 03:36:56;;;;;;;39.42;20.58;;;2.60;99.90;;;;;;4919463;29;20047;-80
2022/11/21 03:39:22;;;;;;;37.88;20.20;;;1.90;99.90;;;;;;4919685;29;20035;-80
2022/11/21 03:41:48;;;;;;;36.17;20.10;;;1.00;99.90;;;;;;4919156;29;20122;-80
2022/11/21 03:44:13;;;;;;;34.10;19.58;;;1.00;99.90;;;;;;4935413;29;20079;-80
2022/11/21 03:46:42;;;;;;;32.78;19.00;;;1.50;99.90;;;;;;4919953;29;20113;-80
2022/11/21 03:49:08;;;;;;;32.70;19.05;;;1.00;99.90;;;;;;4949525;29;20130;-80
2022/11/21 03:51:35;;;;;;;33.45;18.95;;;1.00;99.90;;;;;;4932888;29;20443;-80
2022/11/21 03:54:01;;;;;;;33.75;19.20;;;2.10;99.90;;;;;;4934291;29;20047;-80
2022/11/21 03:56:27;;;;;;;33.38;19.25;;;0.90;99.90;;;;;;4934572;29;20071;-80
2022/11/21 03:58:53;;;;;;;35.40;20.05;;;0.90;99.90;;;;;;4918950;29;20074;-80
2022/11/21 04:01:19;;;;;;;34.22;19.45;;;0.90;99.90;;;;;;4934682;29;20049;-80
2022/11/21 04:03:46;;;;;;;33.85;19.67;;;0.90;99.90;;;;;;4934058;29;20094;-80
2022/11/21 04:06:13;;;;;;;34.50;19.95;;;0.90;99.90;;;;;;4934622;29;20047;-80
2022/11/21 04:08:39;;;;;;;33.20;19.33;;;0.90;99.90;;;;;;4934248;29;20098;-80
2022/11/21 04:11:05;;;;;;;36.85;20.63;;;0.90;99.90;;;;;;4934680;29;20054;-80
2022/11/21 04:13:31;;;;;;;37.30;20.33;;;0.80;99.90;;;;;;4934721;29;20125;-80
2022/11/21 04:15:57;;;;;;;34.58;20.30;;;0.80;99.90;;;;;;4935091;29;20130;-80
2022/11/21 04:18:23;;;;;;;33.92;20.40;;;0.80;99.90;;;;;;4934860;29;20050;-80
2022/11/21 04:20:54;;;;;;;32.95;18.80;;;0.80;99.90;;;;;;4918976;29;20120;-80
2022/11/21 04:23:19;;;;;;;30.25;18.30;;;1.30;99.90;;;;;;4936048;29;20507;-80
2022/11/21 04:25:45;;;;;;;34.50;20.02;;;0.70;99.90;;;;;;4935316;28;20520;-80
2022/11/21 04:28:11;;;;;;;34.10;19.00;;;1.70;99.90;;;;;;4914465;29;20051;-80
2022/11/21 04:30:37;;;;;;;35.20;19.67;;;0.60;99.90;;;;;;4922807;29;20050;-80
2022/11/21 04:33:03;;;;;;;35.30;19.10;;;0.50;99.90;;;;;;4922738;29;20432;-80
2022/11/21 04:35:28;;;;;;;34.72;19.25;;;0.60;99.90;;;;;;4938844;29;20054;-80
2022/11/21 04:37:54;;;;;;;32.80;18.88;;;1.20;99.90;;;;;;4954373;28;20045;-80
2022/11/21 04:40:20;;;;;;;35.42;19.85;;;0.50;99.90;;;;;;4954709;29;20104;-80
2022/11/21 04:42:47;;;;;;;35.50;20.63;;;0.60;99.90;;;;;;4921646;29;20035;-80
2022/11/21 04:45:14;;;;;;;35.90;20.42;;;0.50;99.90;;;;;;4938592;29;20444;-80
2022/11/21 04:47:44;;;;;;;35.80;20.35;;;0.40;99.90;;;;;;4954979;29;20042;-80
2022/11/21 04:50:13;;;;;;;33.03;20.02;;;0.50;99.90;;;;;;4938916;29;20961;-79
2022/11/21 04:52:39;;;;;;;37.30;20.15;;;0.40;99.90;;;;;;4938737;29;20047;-80
2022/11/21 04:55:05;;;;;;;36.60;20.77;;;0.40;99.90;;;;;;4938020;29;20042;-80
2022/11/21 04:57:31;;;;;;;33.17;19.98;;;0.40;99.90;;;;;;4922787;29;20047;-80
2022/11/21 04:59:57;;;;;;;31.08;18.50;;;0.40;99.90;;;;;;4954483;29;20039;-80
2022/11/21 05:02:24;;;;;;;35.40;20.38;;;0.90;99.90;;;;;;4938241;29;20070;-80
2022/11/21 05:04:49;;;;;;;35.85;20.30;;;0.30;99.90;;;;;;4938225;29;20050;-80
2022/11/21 05:07:16;;;;;;;35.38;18.85;;;0.30;99.90;;;;;;4938686;29;20047;-80
2022/11/21 05:09:42;;;;;;;37.65;20.25;;;0.30;99.90;;;;;;4923667;29;20054;-80
2022/11/21 05:14:55;;;;;;;32.97;19.45;;;0.20;99.90;;;;;;4961559;28;20134;-79
2022/11/21 05:17:21;;;;;;;35.38;21.13;;;0.20;99.90;;;;;;4939425;29;20061;-79
2022/11/21 05:19:47;;;;;;;38.67;21.30;;;0.20;99.90;;;;;;4955255;29;20051;-80
2022/11/21 05:22:12;;;;;;;36.03;19.95;;;0.20;99.90;;;;;;4937662;29;20512;-80
2022/11/21 05:24:38;;;;;;;38.50;21.02;;;0.20;99.90;;;;;;4938772;29;20070;-80
2022/11/21 05:27:04;;;;;;;35.42;20.55;;;0.90;99.90;;;;;;4937425;29;20039;-80
2022/11/21 05:29:30;;;;;;;36.70;21.45;;;0.20;99.90;;;;;;4921975;29;20940;-80
2022/11/21 05:31:55;;;;;;;36.63;20.73;;;0.10;99.90;;;;;;4922691;29;20039;-80
2022/11/21 05:34:22;;;;;;;34.90;20.58;;;0.10;99.90;;;;;;4953383;29;20039;-79
2022/11/21 05:36:47;;;;;;;36.08;19.88;;;1.60;99.90;;;;;;4936726;29;20488;-80
2022/11/21 05:39:14;;;;;;;36.80;21.17;;;0.10;99.90;;;;;;4921016;29;20074;-79
2022/11/21 05:41:40;;;;;;;36.00;19.17;;;0.00;99.90;;;;;;4937732;29;20051;-80
2022/11/21 05:44:06;;;;;;;37.28;19.98;;;0.00;99.90;;;;;;4921741;29;20098;-80
2022/11/21 05:46:32;;;;;;;37.70;19.38;;;0.00;99.90;;;;;;4937518;29;20079;-80
2022/11/21 05:48:58;;;;;;;39.00;20.58;;;0.90;99.90;;;;;;4936736;29;20039;-79
2022/11/21 05:51:23;;;;;;;37.85;20.85;;;0.00;99.90;;;;;;4953130;29;20061;-80
2022/11/21 05:53:49;;;;;;;40.17;21.35;;;0.40;99.90;;;;;;4922129;29;20054;-80
2022/11/21 05:56:17;;;;;;;39.30;21.25;;;0.80;99.90;;;;;;4937596;29;20055;-80
2022/11/21 05:58:43;;;;;;;38.03;21.10;;;0.00;99.90;;;;;;4936650;29;20039;-80
2022/11/21 06:01:11;;;;;;;39.15;20.85;;;0.00;99.90;;;;;;4937124;29;20043;-80
2022/11/21 06:03:40;;;;;;;36.85;20.05;;;0.00;99.90;;;;;;4952979;29;20043;-80
2022/11/21 06:06:15;;;;;;;36.75;20.17;;;0.60;99.90;;;;;;4937656;29;20043;-80
2022/11/21 06:08:44;;;;;;;34.08;19.70;;;-0.10;99.90;;;;;;4953647;29;20051;-80
2022/11/21 06:11:12;;;;;;;39.05;20.75;;;-0.10;99.90;;;;;;4954017;29;20158;-80
2022/11/21 06:13:39;;;;;;;36.28;20.65;;;-0.10;99.90;;;;;;4954018;29;20058;-80
2022/11/21 06:16:10;;;;;;;37.22;20.17;;;-0.10;99.90;;;;;;4922587;29;20051;-80
2022/11/21 06:18:38;;;;;;;35.47;21.10;;;-0.10;99.90;;;;;;4938008;29;20094;-80
2022/11/21 06:21:08;;;;;;;36.70;20.77;;;-0.10;99.90;;;;;;4953774;29;20123;-80
2022/11/21 06:23:34;;;;;;;39.45;22.05;;;-0.10;99.90;;;;;;4937862;29;20129;-80
2022/11/21 06:26:02;;;;;;;38.13;21.33;;;-0.20;99.90;;;;;;4936331;29;20047;-80
2022/11/21 06:28:36;;;;;;;35.63;20.08;;;-0.20;99.90;;;;;;4952374;29;20079;-81
2022/11/21 06:31:04;;;;;;;35.60;20.52;;;1.40;99.90;;;;;;4945302;29;20043;-81
2022/11/21 06:33:29;;;;;;;31.88;18.83;;;-0.30;99.90;;;;;;4937938;29;20130;-80
2022/11/21 06:35:55;;;;;;;36.40;20.08;;;0.00;99.90;;;;;;4938123;29;20126;-81
2022/11/21 06:38:21;;;;;;;36.30;20.20;;;0.10;99.90;;;;;;4921649;29;20040;-80
2022/11/21 06:40:46;;;;;;;35.67;21.38;;;-0.40;99.90;;;;;;4922233;29;20031;-79
2022/11/21 06:43:12;;;;;;;37.65;20.90;;;-0.40;99.90;;;;;;4954039;29;20079;-81
2022/11/21 06:45:38;;;;;;;41.03;18.98;;;1.10;99.90;;;;;;4937663;29;20043;-79
2022/11/21 06:48:04;;;;;;;68.35;21.83;;;-0.40;99.90;;;;;;4937952;29;20129;-79
2022/11/21 06:50:30;;;;;;;41.40;17.38;;;-0.40;99.90;;;;;;4919944;29;20365;-79
2022/11/21 06:52:57;;;;;;;100.15;20.80;;;-0.20;99.90;;;;;;4950864;28;20062;-79
2022/11/21 06:55:24;;;;;;;115.05;22.70;;;-0.40;99.90;;;;;;4920505;29;20047;-79
2022/11/21 06:57:49;;;;;;;120.03;23.90;;;0.40;99.90;;;;;;4920722;29;20049;-80
2022/11/21 07:00:16;;;;;;;141.30;22.48;;;-0.10;99.90;;;;;;4921714;29;20039;-80
2022/11/21 07:02:41;;;;;;;76.80;22.02;;;-0.60;99.90;;;;;;4930517;29;20043;-80
2022/11/21 07:05:07;;;;;;;94.40;23.27;;;-0.60;99.90;;;;;;4919457;29;20043;-78
2022/11/21 07:07:33;;;;;;;145.20;24.85;;;-0.50;99.90;;;;;;4921320;29;20047;-78
2022/11/21 07:09:59;;;;;;;100.57;22.88;;;-0.60;99.90;;;;;;4920637;29;20133;-78
2022/11/21 07:15:09;;;;;;;119.22;21.52;;;-0.60;99.90;;;;;;4938867;29;20090;-79
2022/11/21 07:17:35;;;;;;;101.97;22.85;;;-0.50;99.90;;;;;;4953635;29;20051;-78
2022/11/21 07:20:01;;;;;;;118.97;23.23;;;-0.50;99.90;;;;;;4935188;29;20632;-79
2022/11/21 07:22:26;;;;;;;111.75;22.92;;;-0.50;99.90;;;;;;4934975;29;20554;-79
2022/11/21 07:24:52;;;;;;;128.95;23.40;;;-0.40;99.90;;;;;;4935866;29;20078;-79
2022/11/21 07:27:18;;;;;;;68.45;20.92;;;0.00;99.90;;;;;;4919489;29;20102;-78
2022/11/21 07:29:43;;;;;;;117.13;23.23;;;-0.40;99.90;;;;;;4919499;29;20058;-79
2022/11/21 07:32:09;;;;;;;133.45;23.77;;;1.20;99.90;;;;;;4935950;29;20112;-78
2022/11/21 07:34:35;;;;;;;69.72;20.52;;;1.00;99.90;;;;;;4935531;29;20047;-80
2022/11/21 07:37:01;;;;;;;108.13;22.73;;;-0.30;99.90;;;;;;4935068;29;20043;-79
2022/11/21 07:39:26;;;;;;;113.85;23.25;;;-0.30;99.90;;;;;;4919668;29;20035;-79
2022/11/21 07:41:54;;;;;;;56.75;20.45;;;0.70;99.90;;;;;;4926286;29;20039;-79
2022/11/21 07:44:20;;;;;;;161.00;23.58;;;0.40;99.90;;;;;;4919855;29;20043;-79
2022/11/21 07:46:45;;;;;;;76.45;21.98;;;-0.20;99.90;;;;;;4935522;29;20150;-79
2022/11/21 07:49:11;;;;;;;157.10;24.20;;;-0.20;99.90;;;;;;4920306;29;20039;-80
2022/11/21 07:51:37;;;;;;;189.20;24.40;;;-0.20;99.90;;;;;;4934672;29;20070;-79
2022/11/21 07:54:02;;;;;;;163.80;24.52;;;0.00;99.90;;;;;;4950864;29;20046;-80
2022/11/21 07:56:28;;;;;;;140.25;22.63;;;-0.10;99.90;;;;;;4935014;29;20106;-79
2022/11/21 07:58:54;;;;;;;136.55;22.65;;;1.10;99.90;;;;;;4919632;29;20046;-80
2022/11/21 08:01:20;;;;;;;62.45;18.52;;;0.00;99.90;;;;;;4920095;29;20039;-81
2022/11/21 08:03:45;;;;;;;75.25;19.73;;;1.00;99.90;;;;;;4939276;29;20613;-81
2022/11/21 08:06:12;;;;;;;97.25;18.00;;;0.00;99.90;;;;;;4923586;29;20046;-80
2022/11/21 08:08:37;;;;;;;97.28;17.35;;;0.00;99.90;;;;;;4939943;29;20047;-80
2022/11/21 08:11:05;;;;;;;111.90;18.65;;;0.00;99.90;;;;;;4939976;29;20053;-81
2022/11/21 08:13:31;;;;;;;68.43;16.00;;;-0.10;99.90;;;;;;4939732;29;20208;-81
2022/11/21 08:15:57;;;;;;;97.90;17.33;;;0.00;99.90;;;;;;4940392;29;20128;-81
2022/11/21 08:18:23;;;;;;;88.78;18.55;;;0.10;99.90;;;;;;4941893;29;20060;-80
2022/11/21 08:20:49;;;;;;;99.10;19.60;;;0.80;99.90;;;;;;4940093;29;20525;-81
2022/11/21 08:23:15;;;;;;;89.78;17.83;;;0.00;99.90;;;;;;4923714;29;20043;-81
2022/11/21 08:25:41;;;;;;;43.20;14.10;;;0.10;99.90;;;;;;4939378;29;20464;-81
2022/11/21 08:28:09;;;;;;;67.25;16.45;;;0.10;99.90;;;;;;4940838;29;20407;-81
2022/11/21 08:30:36;;;;;;;38.08;13.65;;;0.10;99.90;;;;;;4955762;29;20039;-81
2022/11/21 08:33:03;;;;;;;93.63;16.80;;;0.10;99.90;;;;;;4939610;29;20043;-81
2022/11/21 08:35:29;;;;;;;43.03;14.65;;;0.10;99.90;;;;;;4938241;29;20058;-84
2022/11/21 08:37:59;;;;;;;38.00;13.95;;;0.10;99.90;;;;;;4921148;29;20049;-81
2022/11/21 08:40:26;;;;;;;53.42;15.25;;;0.20;99.90;;;;;;4936828;29;20071;-79
2022/11/21 08:43:09;;;;;;;31.90;13.30;;;0.20;99.90;;;;;;4937223;29;20039;-80
2022/11/21 08:45:37;;;;;;;38.80;15.48;;;1.60;99.90;;;;;;4938534;29;20046;-80
2022/11/21 08:48:03;;;;;;;40.08;16.55;;;0.20;99.90;;;;;;4954928;29;20051;-81
2022/11/21 08:50:30;;;;;;;39.28;14.10;;;0.20;99.90;;;;;;4923267;29;20054;-80
2022/11/21 08:53:00;;;;;;;36.33;14.77;;;1.60;99.90;;;;;;4940234;29;20047;-80
2022/11/21 08:55:26;;;;;;;26.10;14.13;;;0.30;99.90;;;;;;4923577;29;20090;-80
2022/11/21 08:57:52;;;;;;;32.50;14.30;;;0.70;99.90;;;;;;4939458;29;20126;-81
2022/11/21 09:00:18;;;;;;;40.97;15.55;;;2.10;99.90;;;;;;4938425;29;20121;-81
2022/11/21 09:02:43;;;;;;;37.42;14.77;;;0.20;99.90;;;;;;4924491;29;20049;-81
2022/11/21 09:05:09;;;;;;;39.28;14.25;;;0.30;99.90;;;;;;4944755;29;20054;-79
2022/11/21 09:07:35;;;;;;;44.67;16.13;;;0.30;99.90;;;;;;4948629;29;20120;-81
2022/11/21 09:10:01;;;;;;;36.03;15.55;;;0.30;99.90;;;;;;4943211;29;20070;-80
2022/11/21 09:12:27;;;;;;;32.00;16.50;;;0.40;99.90;;;;;;4939813;29;20054;-80
2022/11/21 09:20:22;;;;;;;32.05;15.05;;;0.40;99.90;;;;;;4941654;29;20039;-83
2022/11/21 09:22:47;;;;;;;32.22;15.27;;;0.70;99.90;;;;;;4940318;29;20039;-80
2022/11/21 09:25:14;;;;;;;33.72;16.20;;;1.00;99.90;;;;;;4924374;29;20065;-80
2022/11/21 09:27:40;;;;;;;30.88;15.57;;;0.60;99.90;;;;;;4939826;29;20135;-81
2022/11/21 09:30:06;;;;;;;28.13;16.15;;;0.60;99.90;;;;;;4925123;29;20118;-81
2022/11/21 09:32:32;;;;;;;29.00;15.68;;;0.60;99.90;;;;;;4939763;29;20051;-81
2022/11/21 09:34:58;;;;;;;26.80;14.27;;;0.70;99.90;;;;;;4923491;29;20050;-81
2022/11/21 09:37:23;;;;;;;27.52;16.58;;;1.40;99.90;;;;;;4955742;29;20111;-81
2022/11/21 09:39:49;;;;;;;24.15;14.38;;;1.50;99.90;;;;;;4936329;29;20039;-80
2022/11/21 09:42:52;;;;;;;29.50;15.80;;;0.70;99.90;;;;;;4937034;29;20070;-80
2022/11/21 09:45:32;;;;;;;24.83;14.55;;;0.80;99.90;;;;;;4940349;29;20069;-80
2022/11/21 09:48:00;;;;;;;24.05;14.55;;;0.90;99.90;;;;;;4949360;29;20054;-79
2022/11/21 09:50:40;;;;;;;28.45;15.93;;;1.00;99.90;;;;;;4949667;29;20085;-79
2022/11/21 09:53:16;;;;;;;26.25;15.93;;;1.00;99.90;;;;;;4936330;29;20125;-81
2022/11/21 09:55:54;;;;;;;;;;;1.00;99.90;;;;;;4955814;29;20051;-81
2022/11/21 09:58:33;;;;;;;25.52;14.65;;;1.10;99.90;;;;;;4961765;28;19923;-81
2022/11/21 10:00:59;;;;;;;25.88;14.57;;;1.10;99.90;;;;;;4962828;28;20047;-80
2022/11/21 10:03:28;;;;;;;22.55;14.40;;;1.20;99.90;;;;;;4922189;29;20070;-80
2022/11/21 10:06:02;;;;;;;23.40;13.93;;;1.60;99.90;;;;;;4954403;29;20039;-81
2022/11/21 10:08:56;;;;;;;24.00;14.55;;;1.30;99.90;;;;;;4937537;29;20047;-81
2022/11/21 10:14:38;;;;;;;25.30;14.13;;;1.40;99.90;;;;;;4951977;29;20520;-80
2022/11/21 10:17:07;;;;;;;23.65;13.77;;;1.40;99.90;;;;;;4935971;29;20039;-80
2022/11/21 10:19:50;;;;;;;24.35;14.57;;;2.60;99.90;;;;;;4949966;29;20159;-80
2022/11/21 10:22:24;;;;;;;25.30;15.15;;;1.40;99.90;;;;;;4960848;28;20091;-80
2022/11/21 10:25:10;;;;;;;24.17;13.70;;;1.40;99.90;;;;;;4935827;29;20047;-84
2022/11/21 10:27:48;;;;;;;21.15;13.73;;;1.40;99.90;;;;;;4936673;29;20045;-80
2022/11/21 10:30:17;;;;;;;25.17;15.10;;;1.40;99.90;;;;;;4933559;29;20039;-79
2022/11/21 10:32:47;;;;;;;24.35;14.68;;;1.40;99.90;;;;;;4951208;29;20468;-79
2022/11/21 10:35:19;;;;;;;22.92;13.88;;;1.40;99.90;;;;;;4935797;29;20498;-78
2022/11/21 10:37:54;;;;;;;23.73;14.40;;;1.50;99.90;;;;;;4935199;29;20047;-79
2022/11/21 10:40:34;;;;;;;24.30;15.10;;;2.60;99.90;;;;;;4934569;29;20047;-78
2022/11/21 10:46:03;;;;;;;21.88;13.32;;;1.50;99.90;;;;;;4952144;29;20055;-80
2022/11/21 10:48:29;;;;;;;20.85;13.02;;;1.60;99.90;;;;;;4920167;29;20140;-79
2022/11/21 10:51:10;;;;;;;20.25;12.18;;;1.60;99.90;;;;;;4951696;29;20035;-83
2022/11/21 10:56:22;;;;;;;22.42;14.23;;;2.30;99.90;;;;;;4951487;29;20504;-82
2022/11/21 10:58:48;;;;;;;22.65;14.63;;;1.60;99.90;;;;;;4951157;29;20047;-80
2022/11/21 11:01:34;;;;;;;23.60;13.80;;;1.70;99.90;;;;;;4934347;29;20043;-80
2022/11/21 11:04:14;;;;;;;22.90;13.90;;;2.60;99.90;;;;;;4951356;29;20126;-80
2022/11/21 11:06:42;;;;;;;21.17;13.57;;;1.70;99.90;;;;;;4943093;29;20061;-80
2022/11/21 11:09:31;;;;;;;23.17;13.93;;;2.80;99.90;;;;;;4935000;29;20078;-80
2022/11/21 11:12:15;;;;;;;24.10;13.95;;;1.70;99.90;;;;;;4934659;29;20042;-80
2022/11/21 11:14:50;;;;;;;22.85;13.23;;;1.80;99.90;;;;;;4950977;29;20106;-81
2022/11/21 11:17:16;;;;;;;24.10;12.85;;;1.70;99.90;;;;;;4936073;29;20143;-80
2022/11/21 11:20:23;;;;;;;23.38;13.52;;;1.70;99.90;;;;;;4920583;29;20523;-80
2022/11/21 11:22:48;;;;;;;21.42;13.10;;;1.70;99.90;;;;;;4942969;29;20047;-80
2022/11/21 11:25:14;;;;;;;24.50;14.23;;;1.70;99.90;;;;;;4934903;29;20047;-80
2022/11/21 11:27:40;;;;;;;26.92;14.90;;;1.70;99.90;;;;;;4951907;29;20090;-80
2022/11/21 11:30:07;;;;;;;23.05;13.30;;;1.70;99.90;;;;;;4920053;29;20051;-80
2022/11/21 11:32:39;;;;;;;25.42;15.23;;;1.70;99.90;;;;;;4935615;29;20111;-80
2022/11/21 11:35:25;;;;;;;27.05;15.48;;;2.10;99.90;;;;;;4935148;29;20499;-80
2022/11/21 11:38:03;;;;;;;26.58;16.13;;;1.80;99.90;;;;;;4933383;29;20106;-81
2022/11/21 11:40:35;;;;;;;26.20;16.00;;;1.80;99.90;;;;;;4926853;29;20039;-80
2022/11/21 11:52:38;;;;;;;32.45;16.25;;;2.00;99.90;;;;;;4950316;29;20499;-80
2022/11/21 11:55:20;;;;;;;27.88;15.77;;;3.30;99.90;;;;;;4941980;28;20542;-80
2022/11/21 11:57:51;;;;;;;26.45;15.70;;;2.20;99.90;;;;;;4934109;29;20628;-80
2022/11/21 12:00:37;;;;;;;28.73;15.90;;;2.20;99.90;;;;;;4932304;29;20039;-80
2022/11/21 12:03:07;;;;;;;27.42;15.32;;;2.20;99.90;;;;;;4950894;29;20058;-80
2022/11/21 12:05:35;;;;;;;24.67;15.18;;;2.20;99.90;;;;;;4934414;29;20043;-80
2022/11/21 12:08:35;;;;;;;25.73;14.70;;;2.60;99.90;;;;;;4941760;28;20408;-80
2022/11/21 12:17:10;;;;;;;22.88;12.95;;;2.70;99.90;;;;;;4892094;29;20121;-80
2022/11/21 12:19:38;;;;;;;25.77;14.57;;;3.70;99.90;;;;;;4891174;29;20408;-80
2022/11/21 12:22:05;;;;;;;24.55;14.23;;;2.50;99.90;;;;;;4907345;29;20035;-79
2022/11/21 12:24:33;;;;;;;30.10;16.67;;;3.60;99.90;;;;;;4907612;29;20044;-80
2022/11/21 12:27:23;;;;;;;29.17;14.23;;;2.50;99.90;;;;;;4921310;29;20440;-79
2022/11/21 12:30:38;;;;;;;29.98;15.10;;;2.50;99.90;;;;;;4923722;29;20047;-81
2022/11/21 12:33:29;;;;;;;27.33;15.13;;;2.50;99.90;;;;;;4909006;29;20070;-80
2022/11/21 12:36:16;;;;;;;34.22;16.50;;;2.50;99.90;;;;;;4920370;29;20051;-80
2022/11/21 12:39:04;;;;;;;28.77;15.55;;;2.60;99.90;;;;;;4924862;29;20067;-80
2022/11/21 12:44:57;;;;;;;30.83;15.15;;;2.60;99.90;;;;;;4922164;29;20047;-79
2022/11/21 12:54:29;;;;;;;30.65;14.70;;;3.40;99.90;;;;;;4908961;29;20071;-79
2022/11/21 12:56:45;;;;;;;39.00;18.40;;;2.70;99.90;;;;;;4929188;29;20051;-81
2022/11/21 12:59:13;;;;;;;34.30;15.95;;;2.70;99.90;;;;;;4926619;29;20097;-81
2022/11/21 13:02:29;;;;;;;37.15;17.70;;;2.70;99.90;;;;;;4897092;29;20050;-80
2022/11/21 13:04:58;;;;;;;43.63;18.80;;;2.70;99.90;;;;;;4888713;29;20051;-81
2022/11/21 13:07:28;;;;;;;42.35;19.45;;;4.20;99.90;;;;;;4925900;29;20500;-80
2022/11/21 13:09:56;;;;;;;45.95;20.60;;;2.70;99.90;;;;;;4909835;29;20079;-80
2022/11/21 13:12:24;;;;;;;42.50;18.58;;;3.10;99.90;;;;;;4926101;29;20079;-80
2022/11/21 13:15:19;;;;;;;33.03;15.80;;;2.80;99.90;;;;;;4934636;29;20067;-80
2022/11/21 13:17:57;;;;;;;38.30;16.92;;;2.90;99.90;;;;;;4926400;29;20051;-80
2022/11/21 13:20:44;;;;;;;48.22;20.05;;;3.70;99.90;;;;;;4929318;29;20465;-80
2022/11/21 13:23:33;;;;;;;36.22;17.83;;;2.90;99.90;;;;;;4935956;29;20536;-80
2022/11/21 13:25:59;;;;;;;35.03;17.30;;;2.90;99.90;;;;;;4952762;29;20134;-80
2022/11/21 13:28:30;;;;;;;42.60;19.10;;;2.90;99.90;;;;;;4920558;29;20066;-81
2022/11/21 13:30:58;;;;;;;42.72;18.83;;;3.00;99.90;;;;;;4927321;29;20082;-80
2022/11/21 13:33:36;;;;;;;58.97;19.33;;;4.10;99.90;;;;;;4937372;29;20039;-80